sensor_id;sensor_type;location;lat;lon;timestamp;temperature;humidity
42097;DHT22;27754;45.414;11.084;2024-02-26T00:01:14;7.80;86.70
42097;DHT22;27754;45.414;11.084;2024-02-26T00:03:41;7.80;86.60
42097;DHT22;27754;45.414;11.084;2024-02-26T00:06:09;7.90;86.50
42097;DHT22;27754;45.414;11.084;2024-02-26T00:08:36;7.90;86.20
42097;DHT22;27754;45.414;11.084;2024-02-26T00:11:03;7.90;86.30
42097;DHT22;27754;45.414;11.084;2024-02-26T00:13:30;7.90;86.30
42097;DHT22;27754;45.414;11.084;2024-02-26T00:15:57;7.90;86.40
42097;DHT22;27754;45.414;11.084;2024-02-26T00:18:24;8.00;86.50
42097;DHT22;27754;45.414;11.084;2024-02-26T00:20:51;8.10;86.50
42097;DHT22;27754;45.414;11.084;2024-02-26T00:23:18;8.10;86.20
42097;DHT22;27754;45.414;11.084;2024-02-26T00:25:45;8.10;86.30
42097;DHT22;27754;45.414;11.084;2024-02-26T00:28:14;8.00;85.90
42097;DHT22;27754;45.414;11.084;2024-02-26T00:30:41;8.10;85.40
42097;DHT22;27754;45.414;11.084;2024-02-26T00:33:07;8.20;85.40
42097;DHT22;27754;45.414;11.084;2024-02-26T00:35:35;8.20;85.70
42097;DHT22;27754;45.414;11.084;2024-02-26T00:38:02;8.20;85.80
42097;DHT22;27754;45.414;11.084;2024-02-26T00:40:30;8.20;85.80
42097;DHT22;27754;45.414;11.084;2024-02-26T00:42:57;8.20;86.00
42097;DHT22;27754;45.414;11.084;2024-02-26T00:45:24;8.20;86.20
42097;DHT22;27754;45.414;11.084;2024-02-26T00:47:51;8.20;85.90
42097;DHT22;27754;45.414;11.084;2024-02-26T00:50:18;8.20;85.60
42097;DHT22;27754;45.414;11.084;2024-02-26T00:52:45;8.20;85.50
42097;DHT22;27754;45.414;11.084;2024-02-26T00:55:12;8.30;85.50
42097;DHT22;27754;45.414;11.084;2024-02-26T00:57:39;8.30;85.30
42097;DHT22;27754;45.414;11.084;2024-02-26T01:00:07;8.40;85.20
42097;DHT22;27754;45.414;11.084;2024-02-26T01:02:37;8.40;84.80
42097;DHT22;27754;45.414;11.084;2024-02-26T01:05:06;8.40;84.60
42097;DHT22;27754;45.414;11.084;2024-02-26T01:07:33;8.40;85.20
42097;DHT22;27754;45.414;11.084;2024-02-26T01:10:03;8.20;85.80
42097;DHT22;27754;45.414;11.084;2024-02-26T01:12:30;8.20;86.40
42097;DHT22;27754;45.414;11.084;2024-02-26T01:14:57;8.40;86.10
42097;DHT22;27754;45.414;11.084;2024-02-26T01:17:25;8.40;85.90
42097;DHT22;27754;45.414;11.084;2024-02-26T01:19:52;8.30;85.60
42097;DHT22;27754;45.414;11.084;2024-02-26T01:22:20;8.40;85.40
42097;DHT22;27754;45.414;11.084;2024-02-26T01:24:47;8.40;85.00
42097;DHT22;27754;45.414;11.084;2024-02-26T01:27:15;8.40;85.10
42097;DHT22;27754;45.414;11.084;2024-02-26T01:29:42;8.40;85.20
42097;DHT22;27754;45.414;11.084;2024-02-26T01:32:09;8.40;85.30
42097;DHT22;27754;45.414;11.084;2024-02-26T01:34:36;8.30;85.40
42097;DHT22;27754;45.414;11.084;2024-02-26T01:37:04;8.30;85.60
42097;DHT22;27754;45.414;11.084;2024-02-26T01:39:31;8.30;85.80
42097;DHT22;27754;45.414;11.084;2024-02-26T01:41:58;8.30;86.00
42097;DHT22;27754;45.414;11.084;2024-02-26T01:44:26;8.20;86.20
42097;DHT22;27754;45.414;11.084;2024-02-26T01:46:53;8.10;86.50
42097;DHT22;27754;45.414;11.084;2024-02-26T01:49:21;8.10;86.80
42097;DHT22;27754;45.414;11.084;2024-02-26T01:51:48;8.10;87.10
42097;DHT22;27754;45.414;11.084;2024-02-26T01:54:16;8.00;87.20
42097;DHT22;27754;45.414;11.084;2024-02-26T01:56:43;8.00;87.40
42097;DHT22;27754;45.414;11.084;2024-02-26T01:59:10;8.00;87.60
42097;DHT22;27754;45.414;11.084;2024-02-26T02:01:39;7.90;87.80
42097;DHT22;27754;45.414;11.084;2024-02-26T02:04:11;7.90;87.80
42097;DHT22;27754;45.414;11.084;2024-02-26T02:06:38;7.90;87.90
42097;DHT22;27754;45.414;11.084;2024-02-26T02:09:06;7.90;88.30
42097;DHT22;27754;45.414;11.084;2024-02-26T02:11:34;7.80;88.30
42097;DHT22;27754;45.414;11.084;2024-02-26T02:14:01;7.80;88.20
42097;DHT22;27754;45.414;11.084;2024-02-26T02:16:29;7.80;88.40
42097;DHT22;27754;45.414;11.084;2024-02-26T02:18:56;7.70;88.70
42097;DHT22;27754;45.414;11.084;2024-02-26T02:21:23;7.80;88.60
42097;DHT22;27754;45.414;11.084;2024-02-26T02:23:50;7.70;88.60
42097;DHT22;27754;45.414;11.084;2024-02-26T02:26:17;7.70;88.60
42097;DHT22;27754;45.414;11.084;2024-02-26T02:28:46;7.70;88.80
42097;DHT22;27754;45.414;11.084;2024-02-26T02:31:14;7.70;88.70
42097;DHT22;27754;45.414;11.084;2024-02-26T02:33:41;7.80;88.00
42097;DHT22;27754;45.414;11.084;2024-02-26T02:36:09;7.80;87.50
42097;DHT22;27754;45.414;11.084;2024-02-26T02:38:38;8.00;86.20
42097;DHT22;27754;45.414;11.084;2024-02-26T02:41:05;8.00;85.60
42097;DHT22;27754;45.414;11.084;2024-02-26T02:43:32;8.10;85.40
42097;DHT22;27754;45.414;11.084;2024-02-26T02:45:59;8.10;85.40
42097;DHT22;27754;45.414;11.084;2024-02-26T02:48:26;8.00;85.60
42097;DHT22;27754;45.414;11.084;2024-02-26T02:50:53;7.90;85.80
42097;DHT22;27754;45.414;11.084;2024-02-26T02:53:20;7.90;86.10
42097;DHT22;27754;45.414;11.084;2024-02-26T02:55:47;7.90;86.40
42097;DHT22;27754;45.414;11.084;2024-02-26T02:58:15;7.90;86.90
42097;DHT22;27754;45.414;11.084;2024-02-26T03:00:42;7.80;87.30
42097;DHT22;27754;45.414;11.084;2024-02-26T03:03:09;7.80;87.50
42097;DHT22;27754;45.414;11.084;2024-02-26T03:05:36;7.80;87.40
42097;DHT22;27754;45.414;11.084;2024-02-26T03:08:03;7.80;87.50
42097;DHT22;27754;45.414;11.084;2024-02-26T03:10:31;7.70;87.40
42097;DHT22;27754;45.414;11.084;2024-02-26T03:12:58;7.70;87.40
42097;DHT22;27754;45.414;11.084;2024-02-26T03:15:25;7.70;87.40
42097;DHT22;27754;45.414;11.084;2024-02-26T03:17:52;7.70;87.40
42097;DHT22;27754;45.414;11.084;2024-02-26T03:20:19;7.70;87.50
42097;DHT22;27754;45.414;11.084;2024-02-26T03:22:46;7.70;87.70
42097;DHT22;27754;45.414;11.084;2024-02-26T03:25:13;7.70;87.80
42097;DHT22;27754;45.414;11.084;2024-02-26T03:27:40;7.70;87.70
42097;DHT22;27754;45.414;11.084;2024-02-26T03:30:07;7.70;87.60
42097;DHT22;27754;45.414;11.084;2024-02-26T03:32:35;7.60;87.70
42097;DHT22;27754;45.414;11.084;2024-02-26T03:35:02;7.60;88.00
42097;DHT22;27754;45.414;11.084;2024-02-26T03:37:29;7.60;88.00
42097;DHT22;27754;45.414;11.084;2024-02-26T03:39:56;7.50;88.10
42097;DHT22;27754;45.414;11.084;2024-02-26T03:42:24;7.50;88.20
42097;DHT22;27754;45.414;11.084;2024-02-26T03:44:51;7.50;88.20
42097;DHT22;27754;45.414;11.084;2024-02-26T03:47:18;7.40;88.20
42097;DHT22;27754;45.414;11.084;2024-02-26T03:49:45;7.40;88.30
42097;DHT22;27754;45.414;11.084;2024-02-26T03:52:13;7.30;88.40
42097;DHT22;27754;45.414;11.084;2024-02-26T03:54:40;7.20;88.80
42097;DHT22;27754;45.414;11.084;2024-02-26T03:57:07;7.20;89.00
42097;DHT22;27754;45.414;11.084;2024-02-26T03:59:34;7.20;88.90
42097;DHT22;27754;45.414;11.084;2024-02-26T04:02:01;7.10;89.00
42097;DHT22;27754;45.414;11.084;2024-02-26T04:04:28;7.10;89.00
42097;DHT22;27754;45.414;11.084;2024-02-26T04:06:55;7.10;88.80
42097;DHT22;27754;45.414;11.084;2024-02-26T04:09:23;7.10;88.70
42097;DHT22;27754;45.414;11.084;2024-02-26T04:11:50;7.10;88.50
42097;DHT22;27754;45.414;11.084;2024-02-26T04:14:17;7.10;88.30
42097;DHT22;27754;45.414;11.084;2024-02-26T04:16:44;7.10;88.10
42097;DHT22;27754;45.414;11.084;2024-02-26T04:19:11;7.10;87.80
42097;DHT22;27754;45.414;11.084;2024-02-26T04:21:41;7.20;87.70
42097;DHT22;27754;45.414;11.084;2024-02-26T04:24:08;7.20;87.40
42097;DHT22;27754;45.414;11.084;2024-02-26T04:26:35;7.10;87.30
42097;DHT22;27754;45.414;11.084;2024-02-26T04:29:02;7.10;87.40
42097;DHT22;27754;45.414;11.084;2024-02-26T04:31:29;7.10;87.30
42097;DHT22;27754;45.414;11.084;2024-02-26T04:33:58;7.10;87.20
42097;DHT22;27754;45.414;11.084;2024-02-26T04:36:25;7.10;87.20
42097;DHT22;27754;45.414;11.084;2024-02-26T04:38:53;7.10;87.10
42097;DHT22;27754;45.414;11.084;2024-02-26T04:41:22;7.10;87.20
42097;DHT22;27754;45.414;11.084;2024-02-26T04:43:49;7.10;87.20
42097;DHT22;27754;45.414;11.084;2024-02-26T04:46:16;7.10;87.20
42097;DHT22;27754;45.414;11.084;2024-02-26T04:48:43;7.20;87.10
42097;DHT22;27754;45.414;11.084;2024-02-26T04:51:12;7.10;87.10
42097;DHT22;27754;45.414;11.084;2024-02-26T04:53:39;7.10;87.80
42097;DHT22;27754;45.414;11.084;2024-02-26T04:56:06;7.10;87.80
42097;DHT22;27754;45.414;11.084;2024-02-26T04:58:33;7.10;87.80
42097;DHT22;27754;45.414;11.084;2024-02-26T05:01:01;7.10;88.00
42097;DHT22;27754;45.414;11.084;2024-02-26T05:03:31;7.10;88.20
42097;DHT22;27754;45.414;11.084;2024-02-26T05:06:02;7.10;88.00
42097;DHT22;27754;45.414;11.084;2024-02-26T05:08:29;7.10;88.40
42097;DHT22;27754;45.414;11.084;2024-02-26T05:10:57;7.20;88.30
42097;DHT22;27754;45.414;11.084;2024-02-26T05:13:24;7.20;88.00
42097;DHT22;27754;45.414;11.084;2024-02-26T05:15:51;7.20;87.80
42097;DHT22;27754;45.414;11.084;2024-02-26T05:18:19;7.30;87.50
42097;DHT22;27754;45.414;11.084;2024-02-26T05:20:46;7.50;87.00
42097;DHT22;27754;45.414;11.084;2024-02-26T05:23:13;7.50;86.80
42097;DHT22;27754;45.414;11.084;2024-02-26T05:25:40;7.50;87.00
42097;DHT22;27754;45.414;11.084;2024-02-26T05:28:08;7.50;87.20
42097;DHT22;27754;45.414;11.084;2024-02-26T05:30:35;7.50;87.40
42097;DHT22;27754;45.414;11.084;2024-02-26T05:33:02;7.50;87.30
42097;DHT22;27754;45.414;11.084;2024-02-26T05:35:29;7.50;87.20
42097;DHT22;27754;45.414;11.084;2024-02-26T05:37:56;7.60;86.70
42097;DHT22;27754;45.414;11.084;2024-02-26T05:40:23;7.70;86.60
42097;DHT22;27754;45.414;11.084;2024-02-26T05:42:50;7.80;86.40
42097;DHT22;27754;45.414;11.084;2024-02-26T05:45:18;7.80;86.30
42097;DHT22;27754;45.414;11.084;2024-02-26T05:47:45;7.90;86.40
42097;DHT22;27754;45.414;11.084;2024-02-26T05:50:12;7.90;86.50
42097;DHT22;27754;45.414;11.084;2024-02-26T05:52:40;7.90;86.60
42097;DHT22;27754;45.414;11.084;2024-02-26T05:55:08;7.90;87.00
42097;DHT22;27754;45.414;11.084;2024-02-26T05:57:35;7.90;87.20
42097;DHT22;27754;45.414;11.084;2024-02-26T06:00:02;7.90;87.20
42097;DHT22;27754;45.414;11.084;2024-02-26T06:02:38;7.80;87.10
42097;DHT22;27754;45.414;11.084;2024-02-26T06:05:06;7.80;87.10
42097;DHT22;27754;45.414;11.084;2024-02-26T06:07:35;7.80;87.00
42097;DHT22;27754;45.414;11.084;2024-02-26T06:10:02;7.80;87.20
42097;DHT22;27754;45.414;11.084;2024-02-26T06:12:31;7.80;87.10
42097;DHT22;27754;45.414;11.084;2024-02-26T06:14:59;7.70;87.30
42097;DHT22;27754;45.414;11.084;2024-02-26T06:17:28;7.70;87.30
42097;DHT22;27754;45.414;11.084;2024-02-26T06:19:55;7.70;87.60
42097;DHT22;27754;45.414;11.084;2024-02-26T06:22:22;7.60;87.60
42097;DHT22;27754;45.414;11.084;2024-02-26T06:24:49;7.70;87.80
42097;DHT22;27754;45.414;11.084;2024-02-26T06:27:16;7.70;88.10
42097;DHT22;27754;45.414;11.084;2024-02-26T06:29:43;7.70;88.10
42097;DHT22;27754;45.414;11.084;2024-02-26T06:32:10;7.70;88.40
42097;DHT22;27754;45.414;11.084;2024-02-26T06:34:37;7.70;88.60
42097;DHT22;27754;45.414;11.084;2024-02-26T06:37:05;7.70;88.80
42097;DHT22;27754;45.414;11.084;2024-02-26T06:39:32;7.70;88.80
42097;DHT22;27754;45.414;11.084;2024-02-26T06:42:00;7.70;88.90
42097;DHT22;27754;45.414;11.084;2024-02-26T06:44:28;7.70;89.00
42097;DHT22;27754;45.414;11.084;2024-02-26T06:47:01;7.70;89.00
42097;DHT22;27754;45.414;11.084;2024-02-26T06:49:29;7.70;89.40
42097;DHT22;27754;45.414;11.084;2024-02-26T06:51:56;7.70;89.40
42097;DHT22;27754;45.414;11.084;2024-02-26T06:54:23;7.70;89.40
42097;DHT22;27754;45.414;11.084;2024-02-26T06:56:50;7.70;89.60
42097;DHT22;27754;45.414;11.084;2024-02-26T06:59:17;7.80;89.80
42097;DHT22;27754;45.414;11.084;2024-02-26T07:01:45;7.80;90.00
42097;DHT22;27754;45.414;11.084;2024-02-26T07:04:12;7.80;90.00
42097;DHT22;27754;45.414;11.084;2024-02-26T07:06:39;7.90;89.90
42097;DHT22;27754;45.414;11.084;2024-02-26T07:09:06;7.90;89.80
42097;DHT22;27754;45.414;11.084;2024-02-26T07:11:33;7.90;90.10
42097;DHT22;27754;45.414;11.084;2024-02-26T07:14:00;7.90;90.10
42097;DHT22;27754;45.414;11.084;2024-02-26T07:16:28;7.90;90.20
42097;DHT22;27754;45.414;11.084;2024-02-26T07:18:54;8.00;90.20
42097;DHT22;27754;45.414;11.084;2024-02-26T07:21:22;8.00;90.20
42097;DHT22;27754;45.414;11.084;2024-02-26T07:23:49;8.00;90.10
42097;DHT22;27754;45.414;11.084;2024-02-26T07:26:16;8.00;90.30
42097;DHT22;27754;45.414;11.084;2024-02-26T07:28:45;8.00;90.20
42097;DHT22;27754;45.414;11.084;2024-02-26T07:31:12;8.00;90.30
42097;DHT22;27754;45.414;11.084;2024-02-26T07:33:39;8.10;90.40
42097;DHT22;27754;45.414;11.084;2024-02-26T07:36:07;8.10;90.50
42097;DHT22;27754;45.414;11.084;2024-02-26T07:38:34;8.20;90.80
42097;DHT22;27754;45.414;11.084;2024-02-26T07:41:09;8.30;90.70
42097;DHT22;27754;45.414;11.084;2024-02-26T07:43:37;8.40;90.60
42097;DHT22;27754;45.414;11.084;2024-02-26T07:46:04;8.40;90.60
42097;DHT22;27754;45.414;11.084;2024-02-26T07:48:30;8.40;90.40
42097;DHT22;27754;45.414;11.084;2024-02-26T07:50:58;8.50;90.50
42097;DHT22;27754;45.414;11.084;2024-02-26T07:53:27;8.50;90.10
42097;DHT22;27754;45.414;11.084;2024-02-26T07:55:54;8.60;90.10
42097;DHT22;27754;45.414;11.084;2024-02-26T07:58:23;8.60;90.10
42097;DHT22;27754;45.414;11.084;2024-02-26T08:00:50;8.60;89.90
42097;DHT22;27754;45.414;11.084;2024-02-26T08:03:17;8.70;90.00
42097;DHT22;27754;45.414;11.084;2024-02-26T08:05:44;8.80;89.80
42097;DHT22;27754;45.414;11.084;2024-02-26T08:08:12;8.80;89.50
42097;DHT22;27754;45.414;11.084;2024-02-26T08:10:39;8.90;89.40
42097;DHT22;27754;45.414;11.084;2024-02-26T08:13:06;9.00;89.20
42097;DHT22;27754;45.414;11.084;2024-02-26T08:15:33;9.00;89.10
42097;DHT22;27754;45.414;11.084;2024-02-26T08:18:01;9.10;89.00
42097;DHT22;27754;45.414;11.084;2024-02-26T08:20:31;9.20;88.50
42097;DHT22;27754;45.414;11.084;2024-02-26T08:22:58;9.20;88.70
42097;DHT22;27754;45.414;11.084;2024-02-26T08:25:25;9.20;88.00
42097;DHT22;27754;45.414;11.084;2024-02-26T08:27:52;9.30;87.80
42097;DHT22;27754;45.414;11.084;2024-02-26T08:30:19;9.30;86.90
42097;DHT22;27754;45.414;11.084;2024-02-26T08:32:47;9.40;86.30
42097;DHT22;27754;45.414;11.084;2024-02-26T08:35:18;9.50;86.10
42097;DHT22;27754;45.414;11.084;2024-02-26T08:37:47;9.70;85.60
42097;DHT22;27754;45.414;11.084;2024-02-26T08:40:14;9.90;85.50
42097;DHT22;27754;45.414;11.084;2024-02-26T08:42:42;9.90;84.40
42097;DHT22;27754;45.414;11.084;2024-02-26T08:45:09;10.00;84.30
42097;DHT22;27754;45.414;11.084;2024-02-26T08:47:37;10.00;84.10
42097;DHT22;27754;45.414;11.084;2024-02-26T08:50:05;9.90;83.90
42097;DHT22;27754;45.414;11.084;2024-02-26T08:52:32;10.00;83.40
42097;DHT22;27754;45.414;11.084;2024-02-26T08:55:00;10.10;83.60
42097;DHT22;27754;45.414;11.084;2024-02-26T08:57:27;10.10;83.20
42097;DHT22;27754;45.414;11.084;2024-02-26T08:59:54;10.20;83.00
42097;DHT22;27754;45.414;11.084;2024-02-26T09:02:21;10.30;82.80
42097;DHT22;27754;45.414;11.084;2024-02-26T09:04:48;10.30;82.30
42097;DHT22;27754;45.414;11.084;2024-02-26T09:07:17;10.30;82.40
42097;DHT22;27754;45.414;11.084;2024-02-26T09:09:44;10.20;82.30
42097;DHT22;27754;45.414;11.084;2024-02-26T09:12:11;10.30;82.40
42097;DHT22;27754;45.414;11.084;2024-02-26T09:14:39;10.40;82.00
42097;DHT22;27754;45.414;11.084;2024-02-26T09:17:06;10.50;81.70
42097;DHT22;27754;45.414;11.084;2024-02-26T09:19:37;10.50;81.60
42097;DHT22;27754;45.414;11.084;2024-02-26T09:22:05;10.50;81.80
42097;DHT22;27754;45.414;11.084;2024-02-26T09:24:32;10.50;81.40
42097;DHT22;27754;45.414;11.084;2024-02-26T09:26:59;10.50;81.50
42097;DHT22;27754;45.414;11.084;2024-02-26T09:29:26;10.60;81.80
42097;DHT22;27754;45.414;11.084;2024-02-26T09:31:54;10.60;82.20
42097;DHT22;27754;45.414;11.084;2024-02-26T09:34:21;10.70;82.40
42097;DHT22;27754;45.414;11.084;2024-02-26T09:36:49;10.60;82.00
42097;DHT22;27754;45.414;11.084;2024-02-26T09:39:15;10.60;82.20
42097;DHT22;27754;45.414;11.084;2024-02-26T09:41:48;10.70;82.50
42097;DHT22;27754;45.414;11.084;2024-02-26T09:44:19;10.70;82.40
42097;DHT22;27754;45.414;11.084;2024-02-26T09:46:49;10.70;82.30
42097;DHT22;27754;45.414;11.084;2024-02-26T09:49:19;10.60;82.50
42097;DHT22;27754;45.414;11.084;2024-02-26T09:51:49;10.60;82.30
42097;DHT22;27754;45.414;11.084;2024-02-26T09:54:17;10.60;82.10
42097;DHT22;27754;45.414;11.084;2024-02-26T09:56:46;10.60;82.10
42097;DHT22;27754;45.414;11.084;2024-02-26T09:59:29;10.60;81.90
42097;DHT22;27754;45.414;11.084;2024-02-26T10:02:11;10.40;81.20
42097;DHT22;27754;45.414;11.084;2024-02-26T10:04:42;10.40;81.60
42097;DHT22;27754;45.414;11.084;2024-02-26T10:07:16;10.40;81.80
42097;DHT22;27754;45.414;11.084;2024-02-26T10:09:44;10.50;81.70
42097;DHT22;27754;45.414;11.084;2024-02-26T10:12:11;10.60;81.80
42097;DHT22;27754;45.414;11.084;2024-02-26T10:14:39;10.70;81.70
42097;DHT22;27754;45.414;11.084;2024-02-26T10:17:09;10.80;81.60
42097;DHT22;27754;45.414;11.084;2024-02-26T10:19:37;10.70;81.50
42097;DHT22;27754;45.414;11.084;2024-02-26T10:22:05;10.80;81.70
42097;DHT22;27754;45.414;11.084;2024-02-26T10:24:33;10.90;81.90
42097;DHT22;27754;45.414;11.084;2024-02-26T10:27:02;10.90;81.50
42097;DHT22;27754;45.414;11.084;2024-02-26T10:29:29;10.80;81.30
42097;DHT22;27754;45.414;11.084;2024-02-26T10:31:56;10.80;81.30
42097;DHT22;27754;45.414;11.084;2024-02-26T10:34:23;10.70;82.00
42097;DHT22;27754;45.414;11.084;2024-02-26T10:36:50;10.70;82.40
42097;DHT22;27754;45.414;11.084;2024-02-26T10:39:20;10.60;82.80
42097;DHT22;27754;45.414;11.084;2024-02-26T10:41:49;10.60;83.10
42097;DHT22;27754;45.414;11.084;2024-02-26T10:44:16;10.60;82.50
42097;DHT22;27754;45.414;11.084;2024-02-26T10:46:47;10.60;83.00
42097;DHT22;27754;45.414;11.084;2024-02-26T10:49:17;10.50;83.00
42097;DHT22;27754;45.414;11.084;2024-02-26T10:51:55;10.50;83.20
42097;DHT22;27754;45.414;11.084;2024-02-26T10:54:26;10.50;83.20
42097;DHT22;27754;45.414;11.084;2024-02-26T10:56:56;10.50;83.40
42097;DHT22;27754;45.414;11.084;2024-02-26T10:59:27;10.50;83.20
42097;DHT22;27754;45.414;11.084;2024-02-26T11:01:55;10.60;83.00
42097;DHT22;27754;45.414;11.084;2024-02-26T11:04:23;10.60;82.70
42097;DHT22;27754;45.414;11.084;2024-02-26T11:06:57;10.60;82.60
42097;DHT22;27754;45.414;11.084;2024-02-26T11:09:24;10.50;82.60
42097;DHT22;27754;45.414;11.084;2024-02-26T11:11:52;10.60;82.70
42097;DHT22;27754;45.414;11.084;2024-02-26T11:14:23;10.60;82.60
42097;DHT22;27754;45.414;11.084;2024-02-26T11:16:54;10.60;83.20
42097;DHT22;27754;45.414;11.084;2024-02-26T11:19:24;10.60;83.30
42097;DHT22;27754;45.414;11.084;2024-02-26T11:21:51;10.60;84.40
42097;DHT22;27754;45.414;11.084;2024-02-26T11:24:18;10.70;83.80
42097;DHT22;27754;45.414;11.084;2024-02-26T11:26:53;10.70;83.30
42097;DHT22;27754;45.414;11.084;2024-02-26T11:29:33;10.70;83.90
42097;DHT22;27754;45.414;11.084;2024-02-26T11:32:02;10.70;84.10
42097;DHT22;27754;45.414;11.084;2024-02-26T11:34:29;10.70;84.40
42097;DHT22;27754;45.414;11.084;2024-02-26T11:36:56;10.70;84.70
42097;DHT22;27754;45.414;11.084;2024-02-26T11:39:24;10.70;84.10
42097;DHT22;27754;45.414;11.084;2024-02-26T11:41:52;10.60;84.50
42097;DHT22;27754;45.414;11.084;2024-02-26T11:44:29;10.70;84.70
42097;DHT22;27754;45.414;11.084;2024-02-26T11:46:57;10.50;85.40
42097;DHT22;27754;45.414;11.084;2024-02-26T11:49:31;10.50;84.90
42097;DHT22;27754;45.414;11.084;2024-02-26T11:51:58;10.60;85.30
42097;DHT22;27754;45.414;11.084;2024-02-26T11:54:47;10.50;85.10
42097;DHT22;27754;45.414;11.084;2024-02-26T11:59:57;10.40;85.40
42097;DHT22;27754;45.414;11.084;2024-02-26T12:02:47;10.40;85.20
42097;DHT22;27754;45.414;11.084;2024-02-26T12:05:16;10.40;86.00
42097;DHT22;27754;45.414;11.084;2024-02-26T12:07:46;10.20;85.70
42097;DHT22;27754;45.414;11.084;2024-02-26T12:10:31;10.10;85.90
42097;DHT22;27754;45.414;11.084;2024-02-26T12:13:13;10.20;86.10
42097;DHT22;27754;45.414;11.084;2024-02-26T12:18:19;10.20;86.70
42097;DHT22;27754;45.414;11.084;2024-02-26T12:20:57;10.20;86.90
42097;DHT22;27754;45.414;11.084;2024-02-26T12:23:24;10.20;86.40
42097;DHT22;27754;45.414;11.084;2024-02-26T12:25:51;10.20;86.90
42097;DHT22;27754;45.414;11.084;2024-02-26T12:28:18;10.10;87.00
42097;DHT22;27754;45.414;11.084;2024-02-26T12:30:45;10.10;87.20
42097;DHT22;27754;45.414;11.084;2024-02-26T12:33:13;10.00;87.40
42097;DHT22;27754;45.414;11.084;2024-02-26T12:35:40;10.00;87.90
42097;DHT22;27754;45.414;11.084;2024-02-26T12:38:08;9.90;88.10
42097;DHT22;27754;45.414;11.084;2024-02-26T12:40:35;9.90;88.60
42097;DHT22;27754;45.414;11.084;2024-02-26T12:43:02;9.90;88.70
42097;DHT22;27754;45.414;11.084;2024-02-26T12:45:29;9.80;88.90
42097;DHT22;27754;45.414;11.084;2024-02-26T12:47:56;9.80;89.00
42097;DHT22;27754;45.414;11.084;2024-02-26T12:50:24;9.90;89.10
42097;DHT22;27754;45.414;11.084;2024-02-26T12:52:51;9.90;89.40
42097;DHT22;27754;45.414;11.084;2024-02-26T12:55:21;9.90;89.00
42097;DHT22;27754;45.414;11.084;2024-02-26T12:57:49;9.80;88.40
42097;DHT22;27754;45.414;11.084;2024-02-26T13:00:20;9.80;89.00
42097;DHT22;27754;45.414;11.084;2024-02-26T13:02:50;9.80;89.80
42097;DHT22;27754;45.414;11.084;2024-02-26T13:05:18;9.70;89.40
42097;DHT22;27754;45.414;11.084;2024-02-26T13:07:46;9.60;88.80
42097;DHT22;27754;45.414;11.084;2024-02-26T13:10:14;9.60;89.20
42097;DHT22;27754;45.414;11.084;2024-02-26T13:12:45;9.60;89.30
42097;DHT22;27754;45.414;11.084;2024-02-26T13:15:22;9.50;89.40
42097;DHT22;27754;45.414;11.084;2024-02-26T13:17:49;9.60;89.60
42097;DHT22;27754;45.414;11.084;2024-02-26T13:20:30;9.60;89.90
42097;DHT22;27754;45.414;11.084;2024-02-26T13:23:05;9.50;88.90
42097;DHT22;27754;45.414;11.084;2024-02-26T13:25:34;9.50;89.10
42097;DHT22;27754;45.414;11.084;2024-02-26T13:28:12;9.50;88.80
42097;DHT22;27754;45.414;11.084;2024-02-26T13:30:40;9.40;88.20
42097;DHT22;27754;45.414;11.084;2024-02-26T13:33:11;9.40;88.60
42097;DHT22;27754;45.414;11.084;2024-02-26T13:35:39;9.40;88.20
42097;DHT22;27754;45.414;11.084;2024-02-26T13:38:07;9.40;89.10
42097;DHT22;27754;45.414;11.084;2024-02-26T13:40:35;9.40;89.40
42097;DHT22;27754;45.414;11.084;2024-02-26T13:43:02;9.30;89.60
42097;DHT22;27754;45.414;11.084;2024-02-26T13:45:29;9.30;88.80
42097;DHT22;27754;45.414;11.084;2024-02-26T13:48:05;9.30;89.80
42097;DHT22;27754;45.414;11.084;2024-02-26T13:50:33;9.30;89.90
42097;DHT22;27754;45.414;11.084;2024-02-26T13:53:00;9.30;90.40
42097;DHT22;27754;45.414;11.084;2024-02-26T13:55:30;9.30;90.20
42097;DHT22;27754;45.414;11.084;2024-02-26T13:57:59;9.30;90.90
42097;DHT22;27754;45.414;11.084;2024-02-26T14:00:29;9.20;90.80
42097;DHT22;27754;45.414;11.084;2024-02-26T14:02:59;9.20;91.20
42097;DHT22;27754;45.414;11.084;2024-02-26T14:05:26;9.10;91.10
42097;DHT22;27754;45.414;11.084;2024-02-26T14:07:53;9.10;91.40
42097;DHT22;27754;45.414;11.084;2024-02-26T14:10:22;9.00;91.00
42097;DHT22;27754;45.414;11.084;2024-02-26T14:12:49;9.00;91.20
42097;DHT22;27754;45.414;11.084;2024-02-26T14:15:16;9.00;91.50
42097;DHT22;27754;45.414;11.084;2024-02-26T14:17:43;9.00;90.90
42097;DHT22;27754;45.414;11.084;2024-02-26T14:20:10;9.10;91.50
42097;DHT22;27754;45.414;11.084;2024-02-26T14:22:37;9.10;91.40
42097;DHT22;27754;45.414;11.084;2024-02-26T14:25:04;9.00;91.20
42097;DHT22;27754;45.414;11.084;2024-02-26T14:27:32;9.00;90.90
42097;DHT22;27754;45.414;11.084;2024-02-26T14:29:59;8.90;90.80
42097;DHT22;27754;45.414;11.084;2024-02-26T14:32:26;9.00;90.10
42097;DHT22;27754;45.414;11.084;2024-02-26T14:34:55;8.90;89.80
42097;DHT22;27754;45.414;11.084;2024-02-26T14:37:22;8.90;89.40
42097;DHT22;27754;45.414;11.084;2024-02-26T14:39:49;8.90;90.00
42097;DHT22;27754;45.414;11.084;2024-02-26T14:42:18;8.90;90.50
42097;DHT22;27754;45.414;11.084;2024-02-26T14:44:45;8.90;90.80
42097;DHT22;27754;45.414;11.084;2024-02-26T14:47:14;8.90;90.70
42097;DHT22;27754;45.414;11.084;2024-02-26T14:49:41;8.90;90.40
42097;DHT22;27754;45.414;11.084;2024-02-26T14:52:09;8.90;90.20
42097;DHT22;27754;45.414;11.084;2024-02-26T14:54:36;8.90;90.20
42097;DHT22;27754;45.414;11.084;2024-02-26T14:57:06;8.90;90.00
42097;DHT22;27754;45.414;11.084;2024-02-26T14:59:34;8.90;90.10
42097;DHT22;27754;45.414;11.084;2024-02-26T15:02:03;8.80;88.50
42097;DHT22;27754;45.414;11.084;2024-02-26T15:04:30;8.80;88.40
42097;DHT22;27754;45.414;11.084;2024-02-26T15:06:58;8.80;88.10
42097;DHT22;27754;45.414;11.084;2024-02-26T15:09:25;8.80;88.40
42097;DHT22;27754;45.414;11.084;2024-02-26T15:11:52;8.80;88.50
42097;DHT22;27754;45.414;11.084;2024-02-26T15:14:19;8.80;88.50
42097;DHT22;27754;45.414;11.084;2024-02-26T15:16:46;8.80;89.00
42097;DHT22;27754;45.414;11.084;2024-02-26T15:19:13;8.80;88.00
42097;DHT22;27754;45.414;11.084;2024-02-26T15:21:47;8.80;87.40
42097;DHT22;27754;45.414;11.084;2024-02-26T15:24:15;8.70;87.20
42097;DHT22;27754;45.414;11.084;2024-02-26T15:26:45;8.70;87.10
42097;DHT22;27754;45.414;11.084;2024-02-26T15:29:13;8.80;87.70
42097;DHT22;27754;45.414;11.084;2024-02-26T15:31:40;8.70;87.10
42097;DHT22;27754;45.414;11.084;2024-02-26T15:34:07;8.70;87.50
42097;DHT22;27754;45.414;11.084;2024-02-26T15:36:34;8.80;86.60
42097;DHT22;27754;45.414;11.084;2024-02-26T15:39:02;8.70;86.60